Bauang Weathercam more information Bauang Weathercam


Thunder radar more information blitzortung!


Rain radar more information rain snow radar


Visit other webcamsites:

Livecam

Youtube live stream



Nearby METAR Reports

   
RPLC - Angeles/Pampanga, Philippines
Distance from station: S 165 km
Updated: 14-04-2021 22:00
Mostly Cloudy  
Mostly Cloudy  
   Wind: SSW 2.1 m/s
Wind: SSW 2.1 m/s
Temperature: 28°C
Heat Index: 31°C
Dew Point: 23°C
Humidity: 74%
Barometer: 1012 hPa
Clouds: Mostly Cloudy
Visibility: 8 km
Cloud details: Partly Cloudy 609.6 m,
Mostly Cloudy 3048 m
RPLC 141400Z 21004KT 8000 SCT020 BKN100 28/23 Q1012 NOSIG RMK A2988
RPLI - Laoag Intl(Ph-Ar, Philippines
Distance from station: N 172 km
Updated: 14-04-2021 20:00
NOT Current
Few Clouds  
Few Clouds  
   Wind: varies 1 m/s
Wind: varies 1 m/s
Temperature: 29°C
Heat Index: 34°C
Dew Point: 25°C
Humidity: 79%
Barometer: 1010 hPa
Clouds: Few Clouds
Visibility: More than 10 km
Cloud details: Few Clouds 548.6 m
RPLI 141200Z VRB02KT 9999 FEW018 29/25 Q1010 NOSIG RMK A2983
RPLB - Olongapo/Subic, Philippines
Distance from station: S 203 km
Updated: 14-04-2021 22:00
Partly Cloudy  
Partly Cloudy  
   Wind: varies 0.5 m/s
Wind: varies 0.5 m/s
Temperature: 28°C
Heat Index: 32°C
Dew Point: 24°C
Humidity: 79%
Barometer: 1011 hPa
Clouds: Partly Cloudy
Visibility: More than 10 km
Cloud details: Partly Cloudy 609.6 m
RPLB 141400Z VRB01KT 9999 SCT020 28/24 Q1011 NOSIG RMK A2985
RPLL - Ninoy Aquino Int, Philippines
Distance from station: SSE 246 km
Updated: 14-04-2021 22:00
Few Clouds  
Few Clouds  
   Wind: SE 2.6 m/s
Wind: SE 2.6 m/s
Temperature: 29°C
Heat Index: 33°C
Dew Point: 23°C
Humidity: 70%
Barometer: 1010 hPa
Clouds: Few Clouds
Visibility: More than 10 km
Cloud details: Few Clouds 762 m
RPLL 141400Z 13005KT 070V180 9999 FEW025 29/23 Q1010 NOSIG RMK A2983
RPMR - Romblon/Tablas I, Philippines
Distance from station: SSE 498 km
Updated: 14-04-2021 17:00
NOT Current
Nearby Showers, Mostly Cloudy  
Nearby Showers, Mostly Cloudy  
   Wind: North 3.1 m/s
Wind: North 3.1 m/s
Temperature: 28°C
Heat Index: 33°C
Dew Point: 25°C
Humidity: 84%
Barometer: 1007 hPa
Clouds: Mostly Cloudy
Visibility: More than 10 km
Cloud details: Few Clouds 548.6 m,
Mostly Cloudy 2438.4 m
RPMR 140900Z 36006KT 9999 VCSH FEW018 BKN080 28/25 Q1007 RMK A2974 VCSH NE NW
RPVP - Puerto Princesa, Philippines
Distance from station: SSW 778 km
Updated: 14-04-2021 20:00
NOT Current
Few Clouds  
Few Clouds  
   Wind: North 3.1 m/s
Wind: North 3.1 m/s
Temperature: 29°C
Heat Index: 33°C
Dew Point: 24°C
Humidity: 74%
Barometer: 1010 hPa
Clouds: Few Clouds
Visibility: More than 10 km
Cloud details: Few Clouds 579.1 m
RPVP 141200Z 36006KT 9999 FEW019 29/24 Q1010 RMK A2983
RPVM - Mactan-Cebu, Philippines
Distance from station: SSE 800 km
Updated: 14-04-2021 22:00
Thunderstorm, Mostly Cloudy  
Thunderstorm, Mostly Cloudy  
   Wind: North 4.6 m/s
Wind: North 4.6 m/s
Temperature: 28°C
Heat Index: 32°C
Dew Point: 24°C
Humidity: 79%
Barometer: 1011 hPa
Clouds: Mostly Cloudy
Visibility: More than 10 km
Cloud details: Few Clouds 548.6 m,
Mostly Cloudy 3048 m
RPVM 141400Z 36009KT 9999 TS FEW018CB BKN100 28/24 Q1011 RMK A2985 CB NE SE-S NW
RPMZ - Zamboanga (civ/A, Philippines
Distance from station: S 1090 km
Updated: 14-04-2021 20:00
NOT Current
Mostly Cloudy  
Mostly Cloudy  
   Wind: NNE 2.1 m/s
Wind: NNE 2.1 m/s
Temperature: 27°C
Heat Index: 31°C
Dew Point: 25°C
Humidity: 89%
Barometer: 1010 hPa
Clouds: Mostly Cloudy
Visibility: More than 10 km
Cloud details: Few Clouds 518.2 m,
Mostly Cloudy 2743.2 m
RPMZ 141200Z 03004KT 360V060 9999 FEW017 BKN090 27/25 Q1010 RMK A2983
RPMD - Davao/Francisco, Philippines
Distance from station: SSE 1198 km
Updated: 14-04-2021 22:00
Mostly Cloudy  
Mostly Cloudy  
   Wind: NW 2.1 m/s
Wind: NW 2.1 m/s
Temperature: 24°C
Dew Point: 24°C
Humidity: 100%
Barometer: 1011 hPa
Clouds: Mostly Cloudy
Visibility: More than 10 km
Cloud details: Few Clouds 487.7 m,
Mostly Cloudy 7924.8 m
RPMD 141400Z 31004KT 260V350 9999 FEW016 BKN260 24/24 Q1011 RMK A2985

Script developed by  Saratoga-weather.org Adapted for the template by  Weerstation Leuven

You find our weather info also at:

Ambient Weather

WeatherCloud

Philippine Atmospheric, Geophysical and Astronomical Services Administration